sensor_id;sensor_type;location;lat;lon;timestamp;P1;durP1;ratioP1;P2;durP2;ratioP2
16171;SDS011;8192;53.596;10.166;2023-08-31T00:01:03;37.05;;;33.58;;
16171;SDS011;8192;53.596;10.166;2023-08-31T00:03:32;37.60;;;34.03;;
16171;SDS011;8192;53.596;10.166;2023-08-31T00:06:02;36.92;;;33.38;;
16171;SDS011;8192;53.596;10.166;2023-08-31T00:08:29;38.05;;;34.20;;
16171;SDS011;8192;53.596;10.166;2023-08-31T00:10:58;36.83;;;33.33;;
16171;SDS011;8192;53.596;10.166;2023-08-31T00:13:26;37.72;;;33.90;;
16171;SDS011;8192;53.596;10.166;2023-08-31T00:15:54;36.75;;;33.42;;
16171;SDS011;8192;53.596;10.166;2023-08-31T00:18:22;36.88;;;33.53;;
16171;SDS011;8192;53.596;10.166;2023-08-31T00:20:49;35.10;;;31.95;;
16171;SDS011;8192;53.596;10.166;2023-08-31T00:23:17;37.22;;;33.55;;
16171;SDS011;8192;53.596;10.166;2023-08-31T00:25:45;36.15;;;32.85;;
16171;SDS011;8192;53.596;10.166;2023-08-31T00:28:12;36.70;;;32.97;;
16171;SDS011;8192;53.596;10.166;2023-08-31T00:30:41;36.35;;;32.95;;
16171;SDS011;8192;53.596;10.166;2023-08-31T00:33:09;35.25;;;32.05;;
16171;SDS011;8192;53.596;10.166;2023-08-31T00:35:36;35.47;;;32.28;;
16171;SDS011;8192;53.596;10.166;2023-08-31T00:38:06;34.17;;;31.15;;
16171;SDS011;8192;53.596;10.166;2023-08-31T00:40:35;34.13;;;31.17;;
16171;SDS011;8192;53.596;10.166;2023-08-31T00:43:06;34.30;;;30.95;;
16171;SDS011;8192;53.596;10.166;2023-08-31T00:45:34;33.97;;;30.98;;
16171;SDS011;8192;53.596;10.166;2023-08-31T00:48:01;33.33;;;30.25;;
16171;SDS011;8192;53.596;10.166;2023-08-31T00:50:29;35.00;;;31.63;;
16171;SDS011;8192;53.596;10.166;2023-08-31T00:52:57;32.45;;;29.42;;
16171;SDS011;8192;53.596;10.166;2023-08-31T00:55:24;32.78;;;29.73;;
16171;SDS011;8192;53.596;10.166;2023-08-31T00:57:53;33.13;;;30.00;;
16171;SDS011;8192;53.596;10.166;2023-08-31T01:00:20;33.03;;;30.00;;
16171;SDS011;8192;53.596;10.166;2023-08-31T01:02:55;33.55;;;30.38;;
16171;SDS011;8192;53.596;10.166;2023-08-31T01:05:33;32.70;;;29.73;;
16171;SDS011;8192;53.596;10.166;2023-08-31T01:08:14;33.75;;;30.63;;
16171;SDS011;8192;53.596;10.166;2023-08-31T01:10:50;34.70;;;31.40;;
16171;SDS011;8192;53.596;10.166;2023-08-31T01:13:26;34.83;;;31.23;;
16171;SDS011;8192;53.596;10.166;2023-08-31T01:16:00;34.65;;;31.65;;
16171;SDS011;8192;53.596;10.166;2023-08-31T01:18:31;36.13;;;32.70;;
16171;SDS011;8192;53.596;10.166;2023-08-31T01:21:02;34.63;;;31.30;;
16171;SDS011;8192;53.596;10.166;2023-08-31T01:23:46;33.85;;;30.85;;
16171;SDS011;8192;53.596;10.166;2023-08-31T01:26:18;35.60;;;31.88;;
16171;SDS011;8192;53.596;10.166;2023-08-31T01:28:46;35.25;;;31.77;;
16171;SDS011;8192;53.596;10.166;2023-08-31T01:31:13;34.38;;;31.10;;
16171;SDS011;8192;53.596;10.166;2023-08-31T01:33:41;35.13;;;31.83;;
16171;SDS011;8192;53.596;10.166;2023-08-31T01:36:12;34.47;;;31.17;;
16171;SDS011;8192;53.596;10.166;2023-08-31T01:38:47;32.72;;;29.77;;
16171;SDS011;8192;53.596;10.166;2023-08-31T01:41:19;33.53;;;29.95;;
16171;SDS011;8192;53.596;10.166;2023-08-31T01:43:48;32.55;;;29.40;;
16171;SDS011;8192;53.596;10.166;2023-08-31T01:46:17;31.83;;;28.73;;
16171;SDS011;8192;53.596;10.166;2023-08-31T01:48:45;32.35;;;29.27;;
16171;SDS011;8192;53.596;10.166;2023-08-31T01:51:12;33.47;;;30.23;;
16171;SDS011;8192;53.596;10.166;2023-08-31T01:53:39;33.10;;;28.63;;
16171;SDS011;8192;53.596;10.166;2023-08-31T01:56:07;33.47;;;28.58;;
16171;SDS011;8192;53.596;10.166;2023-08-31T01:58:34;31.60;;;28.35;;
16171;SDS011;8192;53.596;10.166;2023-08-31T02:01:01;30.88;;;28.02;;
16171;SDS011;8192;53.596;10.166;2023-08-31T02:03:28;30.52;;;27.83;;
16171;SDS011;8192;53.596;10.166;2023-08-31T02:05:55;31.40;;;28.08;;
16171;SDS011;8192;53.596;10.166;2023-08-31T02:08:22;31.42;;;27.60;;
16171;SDS011;8192;53.596;10.166;2023-08-31T02:10:49;30.30;;;27.50;;
16171;SDS011;8192;53.596;10.166;2023-08-31T02:13:18;30.85;;;27.85;;
16171;SDS011;8192;53.596;10.166;2023-08-31T02:15:45;30.90;;;27.98;;
16171;SDS011;8192;53.596;10.166;2023-08-31T02:18:12;30.30;;;27.17;;
16171;SDS011;8192;53.596;10.166;2023-08-31T02:20:39;32.70;;;29.67;;
16171;SDS011;8192;53.596;10.166;2023-08-31T02:23:06;30.20;;;27.40;;
16171;SDS011;8192;53.596;10.166;2023-08-31T02:25:34;31.98;;;28.90;;
16171;SDS011;8192;53.596;10.166;2023-08-31T02:28:01;32.65;;;29.17;;
16171;SDS011;8192;53.596;10.166;2023-08-31T02:30:30;32.85;;;29.35;;
16171;SDS011;8192;53.596;10.166;2023-08-31T02:32:57;33.28;;;29.52;;
16171;SDS011;8192;53.596;10.166;2023-08-31T02:35:24;32.70;;;29.48;;
16171;SDS011;8192;53.596;10.166;2023-08-31T02:37:51;33.60;;;29.30;;
16171;SDS011;8192;53.596;10.166;2023-08-31T02:40:17;32.60;;;29.30;;
16171;SDS011;8192;53.596;10.166;2023-08-31T02:42:46;32.33;;;29.02;;
16171;SDS011;8192;53.596;10.166;2023-08-31T02:45:13;32.33;;;28.65;;
16171;SDS011;8192;53.596;10.166;2023-08-31T02:47:43;32.22;;;28.92;;
16171;SDS011;8192;53.596;10.166;2023-08-31T02:50:10;33.17;;;29.98;;
16171;SDS011;8192;53.596;10.166;2023-08-31T02:52:37;32.58;;;29.48;;
16171;SDS011;8192;53.596;10.166;2023-08-31T02:55:04;32.63;;;29.27;;
16171;SDS011;8192;53.596;10.166;2023-08-31T02:57:31;32.20;;;28.90;;
16171;SDS011;8192;53.596;10.166;2023-08-31T02:59:58;31.95;;;28.83;;
16171;SDS011;8192;53.596;10.166;2023-08-31T03:02:25;32.65;;;29.25;;
16171;SDS011;8192;53.596;10.166;2023-08-31T03:04:54;32.00;;;28.92;;
16171;SDS011;8192;53.596;10.166;2023-08-31T03:07:21;33.13;;;29.70;;
16171;SDS011;8192;53.596;10.166;2023-08-31T03:09:48;31.27;;;27.98;;
16171;SDS011;8192;53.596;10.166;2023-08-31T03:12:16;31.88;;;28.50;;
16171;SDS011;8192;53.596;10.166;2023-08-31T03:14:43;31.00;;;27.77;;
16171;SDS011;8192;53.596;10.166;2023-08-31T03:17:10;31.52;;;28.63;;
16171;SDS011;8192;53.596;10.166;2023-08-31T03:19:37;33.60;;;28.70;;
16171;SDS011;8192;53.596;10.166;2023-08-31T03:22:05;30.42;;;27.60;;
16171;SDS011;8192;53.596;10.166;2023-08-31T03:24:32;30.73;;;27.73;;
16171;SDS011;8192;53.596;10.166;2023-08-31T03:26:59;31.85;;;28.80;;
16171;SDS011;8192;53.596;10.166;2023-08-31T03:29:26;30.63;;;27.60;;
16171;SDS011;8192;53.596;10.166;2023-08-31T03:31:54;31.65;;;27.85;;
16171;SDS011;8192;53.596;10.166;2023-08-31T03:34:21;30.77;;;27.50;;
16171;SDS011;8192;53.596;10.166;2023-08-31T03:36:48;31.17;;;27.98;;
16171;SDS011;8192;53.596;10.166;2023-08-31T03:39:23;32.05;;;27.65;;
16171;SDS011;8192;53.596;10.166;2023-08-31T03:41:50;29.10;;;26.38;;
16171;SDS011;8192;53.596;10.166;2023-08-31T03:44:17;30.02;;;27.13;;
16171;SDS011;8192;53.596;10.166;2023-08-31T03:46:46;31.42;;;28.05;;
16171;SDS011;8192;53.596;10.166;2023-08-31T03:49:13;29.20;;;26.40;;
16171;SDS011;8192;53.596;10.166;2023-08-31T03:51:40;29.05;;;26.10;;
16171;SDS011;8192;53.596;10.166;2023-08-31T03:54:06;29.60;;;26.45;;
16171;SDS011;8192;53.596;10.166;2023-08-31T03:56:35;29.08;;;26.10;;
16171;SDS011;8192;53.596;10.166;2023-08-31T03:59:02;29.67;;;26.67;;
16171;SDS011;8192;53.596;10.166;2023-08-31T04:01:29;29.73;;;27.08;;
16171;SDS011;8192;53.596;10.166;2023-08-31T04:03:56;32.50;;;25.67;;
16171;SDS011;8192;53.596;10.166;2023-08-31T04:06:23;31.15;;;26.63;;
16171;SDS011;8192;53.596;10.166;2023-08-31T04:08:50;31.50;;;26.85;;
16171;SDS011;8192;53.596;10.166;2023-08-31T04:11:17;29.20;;;26.00;;
16171;SDS011;8192;53.596;10.166;2023-08-31T04:13:45;28.73;;;25.80;;
16171;SDS011;8192;53.596;10.166;2023-08-31T04:16:12;29.15;;;26.23;;
16171;SDS011;8192;53.596;10.166;2023-08-31T04:18:39;28.65;;;25.65;;
16171;SDS011;8192;53.596;10.166;2023-08-31T04:21:08;39.95;;;26.63;;
16171;SDS011;8192;53.596;10.166;2023-08-31T04:23:35;29.20;;;26.10;;
16171;SDS011;8192;53.596;10.166;2023-08-31T04:26:09;29.75;;;26.33;;
16171;SDS011;8192;53.596;10.166;2023-08-31T04:28:36;28.42;;;25.65;;
16171;SDS011;8192;53.596;10.166;2023-08-31T04:31:06;31.58;;;25.65;;
16171;SDS011;8192;53.596;10.166;2023-08-31T04:33:33;28.77;;;25.60;;
16171;SDS011;8192;53.596;10.166;2023-08-31T04:36:00;28.38;;;25.58;;
16171;SDS011;8192;53.596;10.166;2023-08-31T04:38:28;28.52;;;25.17;;
16171;SDS011;8192;53.596;10.166;2023-08-31T04:40:57;28.08;;;25.33;;
16171;SDS011;8192;53.596;10.166;2023-08-31T04:43:24;28.33;;;25.40;;
16171;SDS011;8192;53.596;10.166;2023-08-31T04:45:51;31.67;;;26.52;;
16171;SDS011;8192;53.596;10.166;2023-08-31T04:48:20;28.58;;;25.65;;
16171;SDS011;8192;53.596;10.166;2023-08-31T04:50:47;28.23;;;25.50;;
16171;SDS011;8192;53.596;10.166;2023-08-31T04:53:15;28.60;;;25.88;;
16171;SDS011;8192;53.596;10.166;2023-08-31T04:55:42;28.63;;;25.90;;
16171;SDS011;8192;53.596;10.166;2023-08-31T04:58:09;28.08;;;25.38;;
16171;SDS011;8192;53.596;10.166;2023-08-31T05:00:36;29.20;;;26.13;;
16171;SDS011;8192;53.596;10.166;2023-08-31T05:03:04;28.13;;;25.33;;
16171;SDS011;8192;53.596;10.166;2023-08-31T05:05:33;29.42;;;25.70;;
16171;SDS011;8192;53.596;10.166;2023-08-31T05:07:59;28.17;;;25.40;;
16171;SDS011;8192;53.596;10.166;2023-08-31T05:10:26;28.95;;;25.73;;
16171;SDS011;8192;53.596;10.166;2023-08-31T05:12:53;31.45;;;26.40;;
16171;SDS011;8192;53.596;10.166;2023-08-31T05:15:21;29.25;;;26.60;;
16171;SDS011;8192;53.596;10.166;2023-08-31T05:17:48;28.48;;;25.42;;
16171;SDS011;8192;53.596;10.166;2023-08-31T05:20:15;28.70;;;25.73;;
16171;SDS011;8192;53.596;10.166;2023-08-31T05:22:43;28.98;;;26.13;;
16171;SDS011;8192;53.596;10.166;2023-08-31T05:25:11;28.90;;;25.83;;
16171;SDS011;8192;53.596;10.166;2023-08-31T05:27:38;27.23;;;24.75;;
16171;SDS011;8192;53.596;10.166;2023-08-31T05:30:06;26.92;;;24.48;;
16171;SDS011;8192;53.596;10.166;2023-08-31T05:32:34;25.80;;;23.50;;
16171;SDS011;8192;53.596;10.166;2023-08-31T05:35:01;26.00;;;23.63;;
16171;SDS011;8192;53.596;10.166;2023-08-31T05:37:31;25.55;;;23.10;;
16171;SDS011;8192;53.596;10.166;2023-08-31T05:40:02;24.88;;;22.75;;
16171;SDS011;8192;53.596;10.166;2023-08-31T05:42:34;24.63;;;22.42;;
16171;SDS011;8192;53.596;10.166;2023-08-31T05:45:01;24.05;;;21.85;;
16171;SDS011;8192;53.596;10.166;2023-08-31T05:47:29;24.40;;;22.00;;
16171;SDS011;8192;53.596;10.166;2023-08-31T05:49:56;24.33;;;22.02;;
16171;SDS011;8192;53.596;10.166;2023-08-31T05:52:23;23.80;;;21.80;;
16171;SDS011;8192;53.596;10.166;2023-08-31T05:54:50;23.70;;;21.27;;
16171;SDS011;8192;53.596;10.166;2023-08-31T05:57:19;23.23;;;21.15;;
16171;SDS011;8192;53.596;10.166;2023-08-31T05:59:46;23.55;;;21.50;;
16171;SDS011;8192;53.596;10.166;2023-08-31T06:02:13;23.63;;;21.38;;
16171;SDS011;8192;53.596;10.166;2023-08-31T06:04:40;23.52;;;21.48;;
16171;SDS011;8192;53.596;10.166;2023-08-31T06:07:07;22.73;;;20.95;;
16171;SDS011;8192;53.596;10.166;2023-08-31T06:09:34;23.67;;;21.48;;
16171;SDS011;8192;53.596;10.166;2023-08-31T06:12:03;23.40;;;21.30;;
16171;SDS011;8192;53.596;10.166;2023-08-31T06:14:31;23.42;;;21.42;;
16171;SDS011;8192;53.596;10.166;2023-08-31T06:16:59;23.67;;;21.38;;
16171;SDS011;8192;53.596;10.166;2023-08-31T06:19:25;23.10;;;20.92;;
16171;SDS011;8192;53.596;10.166;2023-08-31T06:21:52;22.88;;;20.95;;
16171;SDS011;8192;53.596;10.166;2023-08-31T06:24:19;23.10;;;20.92;;
16171;SDS011;8192;53.596;10.166;2023-08-31T06:26:46;23.02;;;20.98;;
16171;SDS011;8192;53.596;10.166;2023-08-31T06:29:13;23.08;;;20.90;;
16171;SDS011;8192;53.596;10.166;2023-08-31T06:31:41;23.10;;;20.85;;
16171;SDS011;8192;53.596;10.166;2023-08-31T06:34:09;22.90;;;20.90;;
16171;SDS011;8192;53.596;10.166;2023-08-31T06:36:36;22.77;;;20.65;;
16171;SDS011;8192;53.596;10.166;2023-08-31T06:39:03;21.70;;;19.85;;
16171;SDS011;8192;53.596;10.166;2023-08-31T06:41:31;22.15;;;20.35;;
16171;SDS011;8192;53.596;10.166;2023-08-31T06:43:58;22.63;;;20.55;;
16171;SDS011;8192;53.596;10.166;2023-08-31T06:46:25;22.73;;;20.75;;
16171;SDS011;8192;53.596;10.166;2023-08-31T06:48:54;23.13;;;21.02;;
16171;SDS011;8192;53.596;10.166;2023-08-31T06:51:21;22.58;;;20.45;;
16171;SDS011;8192;53.596;10.166;2023-08-31T06:53:48;22.77;;;20.38;;
16171;SDS011;8192;53.596;10.166;2023-08-31T06:56:15;22.60;;;20.60;;
16171;SDS011;8192;53.596;10.166;2023-08-31T06:58:42;22.58;;;20.55;;
16171;SDS011;8192;53.596;10.166;2023-08-31T07:01:09;22.67;;;20.60;;
16171;SDS011;8192;53.596;10.166;2023-08-31T07:03:37;22.83;;;20.88;;
16171;SDS011;8192;53.596;10.166;2023-08-31T07:06:05;21.88;;;19.92;;
16171;SDS011;8192;53.596;10.166;2023-08-31T07:08:34;22.00;;;19.98;;
16171;SDS011;8192;53.596;10.166;2023-08-31T07:11:02;21.90;;;20.02;;
16171;SDS011;8192;53.596;10.166;2023-08-31T07:13:29;22.00;;;20.08;;
16171;SDS011;8192;53.596;10.166;2023-08-31T07:15:56;22.48;;;20.58;;
16171;SDS011;8192;53.596;10.166;2023-08-31T07:18:23;22.15;;;20.30;;
16171;SDS011;8192;53.596;10.166;2023-08-31T07:20:50;21.98;;;20.08;;
16171;SDS011;8192;53.596;10.166;2023-08-31T07:23:20;22.02;;;20.15;;
16171;SDS011;8192;53.596;10.166;2023-08-31T07:25:46;21.95;;;19.95;;
16171;SDS011;8192;53.596;10.166;2023-08-31T07:28:14;22.50;;;20.40;;
16171;SDS011;8192;53.596;10.166;2023-08-31T07:30:41;22.30;;;20.38;;
16171;SDS011;8192;53.596;10.166;2023-08-31T07:33:09;22.65;;;20.65;;
16171;SDS011;8192;53.596;10.166;2023-08-31T07:35:36;23.00;;;20.60;;
16171;SDS011;8192;53.596;10.166;2023-08-31T07:38:04;22.40;;;20.55;;
16171;SDS011;8192;53.596;10.166;2023-08-31T07:40:32;22.45;;;20.35;;
16171;SDS011;8192;53.596;10.166;2023-08-31T07:42:59;21.83;;;20.00;;
16171;SDS011;8192;53.596;10.166;2023-08-31T07:45:27;21.77;;;19.98;;
16171;SDS011;8192;53.596;10.166;2023-08-31T07:47:54;21.55;;;19.67;;
16171;SDS011;8192;53.596;10.166;2023-08-31T07:50:21;21.52;;;19.67;;
16171;SDS011;8192;53.596;10.166;2023-08-31T07:52:48;21.92;;;19.83;;
16171;SDS011;8192;53.596;10.166;2023-08-31T07:55:16;21.30;;;19.45;;
16171;SDS011;8192;53.596;10.166;2023-08-31T07:57:44;21.45;;;19.33;;
16171;SDS011;8192;53.596;10.166;2023-08-31T08:00:12;21.45;;;19.65;;
16171;SDS011;8192;53.596;10.166;2023-08-31T08:02:40;21.52;;;19.63;;
16171;SDS011;8192;53.596;10.166;2023-08-31T08:05:07;21.38;;;19.73;;
16171;SDS011;8192;53.596;10.166;2023-08-31T08:07:34;22.20;;;20.10;;
16171;SDS011;8192;53.596;10.166;2023-08-31T08:10:01;21.38;;;19.55;;
16171;SDS011;8192;53.596;10.166;2023-08-31T08:12:36;21.75;;;19.95;;
16171;SDS011;8192;53.596;10.166;2023-08-31T08:15:05;21.55;;;19.75;;
16171;SDS011;8192;53.596;10.166;2023-08-31T08:17:33;21.70;;;19.85;;
16171;SDS011;8192;53.596;10.166;2023-08-31T08:20:00;21.92;;;20.13;;
16171;SDS011;8192;53.596;10.166;2023-08-31T08:22:27;21.42;;;19.70;;
16171;SDS011;8192;53.596;10.166;2023-08-31T08:24:54;21.60;;;19.80;;
16171;SDS011;8192;53.596;10.166;2023-08-31T08:27:21;21.08;;;19.42;;
16171;SDS011;8192;53.596;10.166;2023-08-31T08:29:48;21.77;;;19.92;;
16171;SDS011;8192;53.596;10.166;2023-08-31T08:32:16;21.58;;;19.85;;
16171;SDS011;8192;53.596;10.166;2023-08-31T08:34:43;20.88;;;19.20;;
16171;SDS011;8192;53.596;10.166;2023-08-31T08:37:10;20.90;;;19.20;;
16171;SDS011;8192;53.596;10.166;2023-08-31T08:39:43;21.63;;;19.80;;
16171;SDS011;8192;53.596;10.166;2023-08-31T08:42:14;21.95;;;20.25;;
16171;SDS011;8192;53.596;10.166;2023-08-31T08:44:43;21.55;;;19.80;;
16171;SDS011;8192;53.596;10.166;2023-08-31T08:47:11;21.30;;;19.80;;
16171;SDS011;8192;53.596;10.166;2023-08-31T08:49:40;20.98;;;19.38;;
16171;SDS011;8192;53.596;10.166;2023-08-31T08:52:16;21.58;;;19.77;;
16171;SDS011;8192;53.596;10.166;2023-08-31T08:54:43;20.92;;;19.27;;
16171;SDS011;8192;53.596;10.166;2023-08-31T08:57:10;21.27;;;19.58;;
16171;SDS011;8192;53.596;10.166;2023-08-31T08:59:37;21.70;;;20.10;;
16171;SDS011;8192;53.596;10.166;2023-08-31T09:02:04;21.27;;;19.58;;
16171;SDS011;8192;53.596;10.166;2023-08-31T09:04:34;21.52;;;19.88;;
16171;SDS011;8192;53.596;10.166;2023-08-31T09:07:02;22.05;;;20.25;;
16171;SDS011;8192;53.596;10.166;2023-08-31T09:09:29;21.33;;;19.80;;
16171;SDS011;8192;53.596;10.166;2023-08-31T09:11:57;22.23;;;20.20;;
16171;SDS011;8192;53.596;10.166;2023-08-31T09:14:33;21.55;;;19.75;;
16171;SDS011;8192;53.596;10.166;2023-08-31T09:17:00;21.98;;;20.17;;
16171;SDS011;8192;53.596;10.166;2023-08-31T09:19:27;21.42;;;19.77;;
16171;SDS011;8192;53.596;10.166;2023-08-31T09:21:55;21.10;;;19.30;;
16171;SDS011;8192;53.596;10.166;2023-08-31T09:24:24;21.52;;;19.83;;
16171;SDS011;8192;53.596;10.166;2023-08-31T09:26:53;21.25;;;19.65;;
16171;SDS011;8192;53.596;10.166;2023-08-31T09:29:21;21.23;;;19.60;;
16171;SDS011;8192;53.596;10.166;2023-08-31T09:31:48;21.63;;;19.73;;
16171;SDS011;8192;53.596;10.166;2023-08-31T09:34:15;21.65;;;19.77;;
16171;SDS011;8192;53.596;10.166;2023-08-31T09:36:44;21.25;;;19.48;;
16171;SDS011;8192;53.596;10.166;2023-08-31T09:39:12;21.67;;;19.95;;
16171;SDS011;8192;53.596;10.166;2023-08-31T09:41:53;21.38;;;19.70;;
16171;SDS011;8192;53.596;10.166;2023-08-31T09:44:21;20.85;;;19.27;;
16171;SDS011;8192;53.596;10.166;2023-08-31T09:46:48;21.63;;;19.92;;
16171;SDS011;8192;53.596;10.166;2023-08-31T09:49:15;21.40;;;19.70;;
16171;SDS011;8192;53.596;10.166;2023-08-31T09:51:44;21.58;;;19.70;;
16171;SDS011;8192;53.596;10.166;2023-08-31T09:54:12;22.45;;;20.30;;
16171;SDS011;8192;53.596;10.166;2023-08-31T09:56:40;21.92;;;20.00;;
16171;SDS011;8192;53.596;10.166;2023-08-31T09:59:11;21.88;;;19.85;;
16171;SDS011;8192;53.596;10.166;2023-08-31T10:01:39;21.85;;;19.90;;
16171;SDS011;8192;53.596;10.166;2023-08-31T10:04:07;22.15;;;20.02;;
16171;SDS011;8192;53.596;10.166;2023-08-31T10:06:34;21.60;;;19.52;;
16171;SDS011;8192;53.596;10.166;2023-08-31T10:09:03;21.67;;;19.88;;
16171;SDS011;8192;53.596;10.166;2023-08-31T10:11:30;21.75;;;19.90;;
16171;SDS011;8192;53.596;10.166;2023-08-31T10:13:58;21.90;;;19.90;;
16171;SDS011;8192;53.596;10.166;2023-08-31T10:16:27;21.40;;;19.50;;
16171;SDS011;8192;53.596;10.166;2023-08-31T10:18:55;22.52;;;20.48;;
16171;SDS011;8192;53.596;10.166;2023-08-31T10:21:22;22.30;;;20.42;;
16171;SDS011;8192;53.596;10.166;2023-08-31T10:23:50;22.25;;;20.45;;
16171;SDS011;8192;53.596;10.166;2023-08-31T10:26:24;21.80;;;20.00;;
16171;SDS011;8192;53.596;10.166;2023-08-31T10:28:52;21.73;;;20.00;;
16171;SDS011;8192;53.596;10.166;2023-08-31T10:31:19;21.42;;;19.80;;
16171;SDS011;8192;53.596;10.166;2023-08-31T10:33:54;21.02;;;19.50;;
16171;SDS011;8192;53.596;10.166;2023-08-31T10:36:34;21.88;;;19.98;;
16171;SDS011;8192;53.596;10.166;2023-08-31T10:39:05;21.42;;;19.73;;
16171;SDS011;8192;53.596;10.166;2023-08-31T10:41:36;21.83;;;19.95;;
16171;SDS011;8192;53.596;10.166;2023-08-31T10:44:17;22.10;;;20.00;;
16171;SDS011;8192;53.596;10.166;2023-08-31T10:46:45;21.17;;;19.48;;
16171;SDS011;8192;53.596;10.166;2023-08-31T10:49:15;21.05;;;19.35;;
16171;SDS011;8192;53.596;10.166;2023-08-31T10:51:45;21.08;;;19.52;;
16171;SDS011;8192;53.596;10.166;2023-08-31T10:54:19;21.23;;;19.52;;
16171;SDS011;8192;53.596;10.166;2023-08-31T10:56:52;21.95;;;20.08;;
16171;SDS011;8192;53.596;10.166;2023-08-31T10:59:43;21.27;;;19.48;;
16171;SDS011;8192;53.596;10.166;2023-08-31T11:02:26;22.35;;;20.33;;
16171;SDS011;8192;53.596;10.166;2023-08-31T11:04:59;22.40;;;20.80;;
16171;SDS011;8192;53.596;10.166;2023-08-31T11:07:28;22.45;;;20.75;;
16171;SDS011;8192;53.596;10.166;2023-08-31T11:10:06;22.38;;;20.73;;
16171;SDS011;8192;53.596;10.166;2023-08-31T11:12:38;22.08;;;20.38;;
16171;SDS011;8192;53.596;10.166;2023-08-31T11:15:05;21.67;;;20.17;;
16171;SDS011;8192;53.596;10.166;2023-08-31T11:17:33;21.20;;;19.70;;
16171;SDS011;8192;53.596;10.166;2023-08-31T11:20:02;22.42;;;20.45;;
16171;SDS011;8192;53.596;10.166;2023-08-31T11:22:31;22.40;;;20.70;;
16171;SDS011;8192;53.596;10.166;2023-08-31T11:24:59;22.08;;;20.48;;
16171;SDS011;8192;53.596;10.166;2023-08-31T11:27:26;22.25;;;20.55;;
16171;SDS011;8192;53.596;10.166;2023-08-31T11:29:53;22.73;;;20.58;;
16171;SDS011;8192;53.596;10.166;2023-08-31T11:32:22;22.42;;;20.55;;
16171;SDS011;8192;53.596;10.166;2023-08-31T11:34:50;21.90;;;20.33;;
16171;SDS011;8192;53.596;10.166;2023-08-31T11:37:18;22.00;;;20.27;;
16171;SDS011;8192;53.596;10.166;2023-08-31T11:39:48;22.00;;;20.27;;
16171;SDS011;8192;53.596;10.166;2023-08-31T11:42:16;22.33;;;20.63;;
16171;SDS011;8192;53.596;10.166;2023-08-31T11:44:45;22.40;;;20.52;;
16171;SDS011;8192;53.596;10.166;2023-08-31T11:47:13;21.08;;;19.58;;
16171;SDS011;8192;53.596;10.166;2023-08-31T11:49:40;21.50;;;19.90;;
16171;SDS011;8192;53.596;10.166;2023-08-31T11:52:09;21.35;;;19.75;;
16171;SDS011;8192;53.596;10.166;2023-08-31T11:54:39;20.90;;;19.40;;
16171;SDS011;8192;53.596;10.166;2023-08-31T11:57:06;20.70;;;19.20;;
16171;SDS011;8192;53.596;10.166;2023-08-31T11:59:35;21.15;;;19.25;;
16171;SDS011;8192;53.596;10.166;2023-08-31T12:02:04;20.85;;;19.15;;
16171;SDS011;8192;53.596;10.166;2023-08-31T12:04:33;20.40;;;18.90;;
16171;SDS011;8192;53.596;10.166;2023-08-31T12:07:08;20.40;;;18.80;;
16171;SDS011;8192;53.596;10.166;2023-08-31T12:09:35;20.55;;;19.05;;
16171;SDS011;8192;53.596;10.166;2023-08-31T12:12:05;20.55;;;19.10;;
16171;SDS011;8192;53.596;10.166;2023-08-31T12:14:36;20.40;;;18.88;;
16171;SDS011;8192;53.596;10.166;2023-08-31T12:17:05;20.35;;;18.92;;
16171;SDS011;8192;53.596;10.166;2023-08-31T12:19:33;20.67;;;19.15;;
16171;SDS011;8192;53.596;10.166;2023-08-31T12:22:03;20.73;;;19.13;;
16171;SDS011;8192;53.596;10.166;2023-08-31T12:24:36;20.30;;;18.63;;
16171;SDS011;8192;53.596;10.166;2023-08-31T12:27:05;20.50;;;18.90;;
16171;SDS011;8192;53.596;10.166;2023-08-31T12:29:32;20.17;;;18.58;;
16171;SDS011;8192;53.596;10.166;2023-08-31T12:31:59;20.27;;;18.67;;
16171;SDS011;8192;53.596;10.166;2023-08-31T12:34:26;20.50;;;18.90;;
16171;SDS011;8192;53.596;10.166;2023-08-31T12:36:53;20.08;;;18.50;;
16171;SDS011;8192;53.596;10.166;2023-08-31T12:39:24;20.33;;;18.83;;
16171;SDS011;8192;53.596;10.166;2023-08-31T12:41:51;20.48;;;18.98;;
16171;SDS011;8192;53.596;10.166;2023-08-31T12:44:20;20.50;;;18.75;;
16171;SDS011;8192;53.596;10.166;2023-08-31T12:46:47;20.40;;;18.90;;
16171;SDS011;8192;53.596;10.166;2023-08-31T12:49:14;20.80;;;19.30;;
16171;SDS011;8192;53.596;10.166;2023-08-31T12:51:40;21.08;;;19.52;;
16171;SDS011;8192;53.596;10.166;2023-08-31T12:54:07;20.45;;;19.15;;
16171;SDS011;8192;53.596;10.166;2023-08-31T12:56:35;19.40;;;18.00;;
16171;SDS011;8192;53.596;10.166;2023-08-31T12:59:03;18.92;;;17.63;;
16171;SDS011;8192;53.596;10.166;2023-08-31T13:01:32;19.35;;;17.77;;
16171;SDS011;8192;53.596;10.166;2023-08-31T13:03:59;20.20;;;18.50;;
16171;SDS011;8192;53.596;10.166;2023-08-31T13:06:28;20.55;;;18.98;;
16171;SDS011;8192;53.596;10.166;2023-08-31T13:08:55;20.92;;;19.42;;
16171;SDS011;8192;53.596;10.166;2023-08-31T13:11:22;20.85;;;19.15;;
16171;SDS011;8192;53.596;10.166;2023-08-31T13:13:50;20.90;;;19.30;;
16171;SDS011;8192;53.596;10.166;2023-08-31T13:16:17;21.60;;;19.92;;
16171;SDS011;8192;53.596;10.166;2023-08-31T13:18:48;21.25;;;19.65;;
16171;SDS011;8192;53.596;10.166;2023-08-31T13:21:15;21.40;;;19.80;;
16171;SDS011;8192;53.596;10.166;2023-08-31T13:23:42;21.80;;;20.20;;
16171;SDS011;8192;53.596;10.166;2023-08-31T13:26:09;22.23;;;20.42;;
16171;SDS011;8192;53.596;10.166;2023-08-31T13:28:37;22.00;;;20.35;;
16171;SDS011;8192;53.596;10.166;2023-08-31T13:31:04;21.58;;;20.02;;
16171;SDS011;8192;53.596;10.166;2023-08-31T13:33:31;21.40;;;19.80;;
16171;SDS011;8192;53.596;10.166;2023-08-31T13:35:59;21.25;;;19.75;;
16171;SDS011;8192;53.596;10.166;2023-08-31T13:38:28;21.15;;;19.48;;
16171;SDS011;8192;53.596;10.166;2023-08-31T13:40:56;21.48;;;19.77;;
16171;SDS011;8192;53.596;10.166;2023-08-31T13:43:23;21.45;;;19.85;;
16171;SDS011;8192;53.596;10.166;2023-08-31T13:49:14;21.00;;;19.40;;
16171;SDS011;8192;53.596;10.166;2023-08-31T13:51:43;21.40;;;19.80;;
16171;SDS011;8192;53.596;10.166;2023-08-31T13:54:10;20.67;;;19.17;;
16171;SDS011;8192;53.596;10.166;2023-08-31T13:56:37;21.27;;;19.42;;
16171;SDS011;8192;53.596;10.166;2023-08-31T13:59:05;21.08;;;19.48;;
16171;SDS011;8192;53.596;10.166;2023-08-31T14:01:32;20.67;;;19.17;;
16171;SDS011;8192;53.596;10.166;2023-08-31T14:03:58;21.42;;;19.83;;
16171;SDS011;8192;53.596;10.166;2023-08-31T14:06:26;21.42;;;19.58;;
16171;SDS011;8192;53.596;10.166;2023-08-31T14:08:55;21.67;;;20.10;;
16171;SDS011;8192;53.596;10.166;2023-08-31T14:11:22;21.80;;;20.20;;
16171;SDS011;8192;53.596;10.166;2023-08-31T14:13:49;21.23;;;19.63;;
16171;SDS011;8192;53.596;10.166;2023-08-31T14:16:17;21.17;;;19.58;;
16171;SDS011;8192;53.596;10.166;2023-08-31T14:18:44;21.30;;;19.70;;
16171;SDS011;8192;53.596;10.166;2023-08-31T14:21:14;20.98;;;19.48;;
16171;SDS011;8192;53.596;10.166;2023-08-31T14:23:41;20.70;;;19.20;;
16171;SDS011;8192;53.596;10.166;2023-08-31T14:26:12;20.20;;;18.80;;
16171;SDS011;8192;53.596;10.166;2023-08-31T14:28:39;21.27;;;19.58;;
16171;SDS011;8192;53.596;10.166;2023-08-31T14:31:07;20.67;;;19.08;;